Terminal Aerodrome Forecast
Issued by NWS Mt. Holly, NJ

Current Version | Previous Version | Text Only | Print | Product List | Glossary On
Versions: 1 2 3 4 5 6 7 8 9 10 11 12 13 14 15 16 17 18 19 20 21 22 23 24 25 26 27 28 29 30 31 32 33 34 35 36 37 38 39 40 41
000
FTAK31 PANC 241959 AAA
TAFABE
TAF AMD
PABE 241959Z 2420/2518 01005KT P6SM -SHRA SCT015 OVC025
      TEMPO 2420/2422 BKN015
     FM250000 36007KT P6SM -SHRA SCT030 OVC050
     FM250300 33008KT P6SM SCT040 BKN060
     FM251200 31011KT P6SM VCFG FEW005 SCT030 BKN050=

USA.gov is the U.S. government's official web portal to all federal, state and local government web resources and services.